Terminal Aerodrome Forecast
Issued by NWS

Home | Current Version | Previous Version | Text Only | Print | Product List | Glossary On
Versions: 1 2 3 4 5 6 7 8 9 10 11 12 13
798
FTUS44 KJAN 271120
TAFHKS
TAF
KHKS 271120Z 2712/2812 17006KT P6SM -SHRA BKN007 BKN013 OVC025
     FM271500 18008KT P6SM -SHRA VCTS BKN015 OVC035CB
     FM271800 19010KT P6SM -TSRA SCT025 BKN040CB
     FM280000 19007KT P6SM SCT050 SCT100
     FM280900 18005KT P6SM SCT007 SCT015=

USA.gov is the U.S. government's official web portal to all federal, state and local government web resources and services.